sensor_id;sensor_type;location;lat;lon;timestamp;P1;durP1;ratioP1;P2;durP2;ratioP2
23300;SDS011;11819;51.394;12.340;2022-07-29T00:01:33;5.57;;;2.90;;
23300;SDS011;11819;51.394;12.340;2022-07-29T00:03:58;6.55;;;3.30;;
23300;SDS011;11819;51.394;12.340;2022-07-29T00:06:24;7.15;;;2.90;;
23300;SDS011;11819;51.394;12.340;2022-07-29T00:08:49;6.70;;;2.97;;
23300;SDS011;11819;51.394;12.340;2022-07-29T00:11:15;6.72;;;3.40;;
23300;SDS011;11819;51.394;12.340;2022-07-29T00:13:40;6.88;;;2.97;;
23300;SDS011;11819;51.394;12.340;2022-07-29T00:16:06;4.88;;;3.08;;
23300;SDS011;11819;51.394;12.340;2022-07-29T00:18:32;7.15;;;3.13;;
23300;SDS011;11819;51.394;12.340;2022-07-29T00:20:57;6.78;;;3.30;;
23300;SDS011;11819;51.394;12.340;2022-07-29T00:23:23;6.45;;;3.30;;
23300;SDS011;11819;51.394;12.340;2022-07-29T00:25:49;4.13;;;3.03;;
23300;SDS011;11819;51.394;12.340;2022-07-29T00:28:14;7.72;;;3.08;;
23300;SDS011;11819;51.394;12.340;2022-07-29T00:30:40;7.40;;;3.67;;
23300;SDS011;11819;51.394;12.340;2022-07-29T00:33:08;7.43;;;3.20;;
23300;SDS011;11819;51.394;12.340;2022-07-29T00:35:34;6.22;;;3.10;;
23300;SDS011;11819;51.394;12.340;2022-07-29T00:38:09;8.05;;;3.05;;
23300;SDS011;11819;51.394;12.340;2022-07-29T00:40:35;5.40;;;3.15;;
23300;SDS011;11819;51.394;12.340;2022-07-29T00:43:01;7.18;;;3.45;;
23300;SDS011;11819;51.394;12.340;2022-07-29T00:45:27;5.03;;;2.75;;
23300;SDS011;11819;51.394;12.340;2022-07-29T00:47:52;6.38;;;3.05;;
23300;SDS011;11819;51.394;12.340;2022-07-29T00:50:18;6.38;;;3.20;;
23300;SDS011;11819;51.394;12.340;2022-07-29T00:52:43;7.10;;;3.42;;
23300;SDS011;11819;51.394;12.340;2022-07-29T00:55:11;6.18;;;3.45;;
23300;SDS011;11819;51.394;12.340;2022-07-29T00:57:38;6.68;;;3.42;;
23300;SDS011;11819;51.394;12.340;2022-07-29T01:00:05;5.72;;;3.08;;
23300;SDS011;11819;51.394;12.340;2022-07-29T01:02:33;5.07;;;2.80;;
23300;SDS011;11819;51.394;12.340;2022-07-29T01:04:58;7.88;;;3.55;;
23300;SDS011;11819;51.394;12.340;2022-07-29T01:07:25;5.07;;;3.58;;
23300;SDS011;11819;51.394;12.340;2022-07-29T01:09:52;5.45;;;3.17;;
23300;SDS011;11819;51.394;12.340;2022-07-29T01:12:21;7.43;;;3.47;;
23300;SDS011;11819;51.394;12.340;2022-07-29T01:14:52;5.43;;;2.90;;
23300;SDS011;11819;51.394;12.340;2022-07-29T01:20:07;4.72;;;3.20;;
23300;SDS011;11819;51.394;12.340;2022-07-29T01:25:44;4.80;;;3.42;;
23300;SDS011;11819;51.394;12.340;2022-07-29T01:31:39;5.13;;;3.00;;
23300;SDS011;11819;51.394;12.340;2022-07-29T01:34:11;5.38;;;3.20;;
23300;SDS011;11819;51.394;12.340;2022-07-29T01:36:47;6.20;;;3.20;;
23300;SDS011;11819;51.394;12.340;2022-07-29T01:39:19;6.22;;;3.15;;
23300;SDS011;11819;51.394;12.340;2022-07-29T01:42:02;9.02;;;3.38;;
23300;SDS011;11819;51.394;12.340;2022-07-29T01:45:08;6.03;;;3.00;;
23300;SDS011;11819;51.394;12.340;2022-07-29T01:48:05;5.97;;;2.75;;
23300;SDS011;11819;51.394;12.340;2022-07-29T01:50:47;7.30;;;3.30;;
23300;SDS011;11819;51.394;12.340;2022-07-29T01:53:18;5.65;;;3.15;;
23300;SDS011;11819;51.394;12.340;2022-07-29T01:55:51;7.70;;;3.40;;
23300;SDS011;11819;51.394;12.340;2022-07-29T01:58:17;4.85;;;3.13;;
23300;SDS011;11819;51.394;12.340;2022-07-29T02:00:45;5.10;;;3.30;;
23300;SDS011;11819;51.394;12.340;2022-07-29T02:03:14;7.57;;;3.30;;
23300;SDS011;11819;51.394;12.340;2022-07-29T02:05:42;8.38;;;3.63;;
23300;SDS011;11819;51.394;12.340;2022-07-29T02:08:10;6.38;;;3.25;;
23300;SDS011;11819;51.394;12.340;2022-07-29T02:10:37;7.35;;;3.17;;
23300;SDS011;11819;51.394;12.340;2022-07-29T02:13:04;7.22;;;3.40;;
23300;SDS011;11819;51.394;12.340;2022-07-29T02:15:32;6.07;;;3.20;;
23300;SDS011;11819;51.394;12.340;2022-07-29T02:18:18;6.60;;;3.42;;
23300;SDS011;11819;51.394;12.340;2022-07-29T02:20:48;6.53;;;2.95;;
23300;SDS011;11819;51.394;12.340;2022-07-29T02:23:18;7.95;;;3.08;;
23300;SDS011;11819;51.394;12.340;2022-07-29T02:25:46;6.95;;;3.30;;
23300;SDS011;11819;51.394;12.340;2022-07-29T02:28:16;6.72;;;3.70;;
23300;SDS011;11819;51.394;12.340;2022-07-29T02:30:44;5.60;;;3.28;;
23300;SDS011;11819;51.394;12.340;2022-07-29T02:33:12;7.15;;;3.65;;
23300;SDS011;11819;51.394;12.340;2022-07-29T02:35:40;6.22;;;3.15;;
23300;SDS011;11819;51.394;12.340;2022-07-29T02:38:09;7.18;;;3.45;;
23300;SDS011;11819;51.394;12.340;2022-07-29T02:40:56;7.32;;;3.30;;
23300;SDS011;11819;51.394;12.340;2022-07-29T02:43:23;4.40;;;3.08;;
23300;SDS011;11819;51.394;12.340;2022-07-29T02:45:51;7.00;;;3.72;;
23300;SDS011;11819;51.394;12.340;2022-07-29T02:48:20;5.68;;;3.60;;
23300;SDS011;11819;51.394;12.340;2022-07-29T02:50:54;6.35;;;3.28;;
23300;SDS011;11819;51.394;12.340;2022-07-29T02:53:26;6.78;;;3.47;;
23300;SDS011;11819;51.394;12.340;2022-07-29T02:56:04;5.53;;;3.05;;
23300;SDS011;11819;51.394;12.340;2022-07-29T02:58:45;6.80;;;3.38;;
23300;SDS011;11819;51.394;12.340;2022-07-29T03:01:14;5.28;;;3.08;;
23300;SDS011;11819;51.394;12.340;2022-07-29T03:03:42;6.05;;;3.33;;
23300;SDS011;11819;51.394;12.340;2022-07-29T03:06:10;5.25;;;3.22;;
23300;SDS011;11819;51.394;12.340;2022-07-29T03:08:38;6.13;;;3.70;;
23300;SDS011;11819;51.394;12.340;2022-07-29T03:11:05;6.25;;;4.03;;
23300;SDS011;11819;51.394;12.340;2022-07-29T03:13:33;6.80;;;3.60;;
23300;SDS011;11819;51.394;12.340;2022-07-29T03:16:00;7.03;;;3.83;;
23300;SDS011;11819;51.394;12.340;2022-07-29T03:18:26;6.38;;;3.40;;
23300;SDS011;11819;51.394;12.340;2022-07-29T03:20:52;7.78;;;3.38;;
23300;SDS011;11819;51.394;12.340;2022-07-29T03:23:21;7.22;;;3.20;;
23300;SDS011;11819;51.394;12.340;2022-07-29T03:25:49;6.25;;;3.45;;
23300;SDS011;11819;51.394;12.340;2022-07-29T03:28:15;7.32;;;3.88;;
23300;SDS011;11819;51.394;12.340;2022-07-29T03:30:41;8.23;;;3.58;;
23300;SDS011;11819;51.394;12.340;2022-07-29T03:33:06;9.40;;;3.70;;
23300;SDS011;11819;51.394;12.340;2022-07-29T03:35:32;7.43;;;3.58;;
23300;SDS011;11819;51.394;12.340;2022-07-29T03:37:58;7.60;;;3.30;;
23300;SDS011;11819;51.394;12.340;2022-07-29T03:40:25;5.47;;;3.30;;
23300;SDS011;11819;51.394;12.340;2022-07-29T03:42:55;8.35;;;3.72;;
23300;SDS011;11819;51.394;12.340;2022-07-29T03:45:22;7.45;;;3.85;;
23300;SDS011;11819;51.394;12.340;2022-07-29T03:47:50;9.27;;;3.50;;
23300;SDS011;11819;51.394;12.340;2022-07-29T03:50:20;6.85;;;3.50;;
23300;SDS011;11819;51.394;12.340;2022-07-29T03:52:47;4.97;;;3.25;;
23300;SDS011;11819;51.394;12.340;2022-07-29T03:55:13;7.15;;;3.38;;
23300;SDS011;11819;51.394;12.340;2022-07-29T03:57:40;6.93;;;3.35;;
23300;SDS011;11819;51.394;12.340;2022-07-29T04:00:06;7.53;;;3.90;;
23300;SDS011;11819;51.394;12.340;2022-07-29T04:02:33;7.53;;;4.10;;
23300;SDS011;11819;51.394;12.340;2022-07-29T04:04:59;7.25;;;3.42;;
23300;SDS011;11819;51.394;12.340;2022-07-29T04:07:24;7.20;;;3.78;;
23300;SDS011;11819;51.394;12.340;2022-07-29T04:09:50;11.77;;;3.55;;
23300;SDS011;11819;51.394;12.340;2022-07-29T04:12:16;7.07;;;3.58;;
23300;SDS011;11819;51.394;12.340;2022-07-29T04:14:42;7.30;;;3.38;;
23300;SDS011;11819;51.394;12.340;2022-07-29T04:17:07;9.90;;;3.40;;
23300;SDS011;11819;51.394;12.340;2022-07-29T04:19:33;10.18;;;3.67;;
23300;SDS011;11819;51.394;12.340;2022-07-29T04:21:59;7.75;;;4.03;;
23300;SDS011;11819;51.394;12.340;2022-07-29T04:24:25;6.10;;;3.63;;
23300;SDS011;11819;51.394;12.340;2022-07-29T04:26:51;5.65;;;3.42;;
23300;SDS011;11819;51.394;12.340;2022-07-29T04:29:16;7.65;;;4.22;;
23300;SDS011;11819;51.394;12.340;2022-07-29T04:31:42;7.00;;;3.60;;
23300;SDS011;11819;51.394;12.340;2022-07-29T04:34:08;8.25;;;3.88;;
23300;SDS011;11819;51.394;12.340;2022-07-29T04:36:34;6.60;;;4.13;;
23300;SDS011;11819;51.394;12.340;2022-07-29T04:39:00;7.20;;;3.75;;
23300;SDS011;11819;51.394;12.340;2022-07-29T04:41:26;6.68;;;3.63;;
23300;SDS011;11819;51.394;12.340;2022-07-29T04:43:56;7.43;;;3.60;;
23300;SDS011;11819;51.394;12.340;2022-07-29T04:46:21;8.10;;;4.35;;
23300;SDS011;11819;51.394;12.340;2022-07-29T04:48:47;8.18;;;3.50;;
23300;SDS011;11819;51.394;12.340;2022-07-29T04:51:13;6.32;;;4.00;;
23300;SDS011;11819;51.394;12.340;2022-07-29T04:53:40;8.10;;;3.83;;
23300;SDS011;11819;51.394;12.340;2022-07-29T04:56:05;9.23;;;3.97;;
23300;SDS011;11819;51.394;12.340;2022-07-29T04:58:31;9.63;;;3.42;;
23300;SDS011;11819;51.394;12.340;2022-07-29T05:00:58;6.60;;;3.60;;
23300;SDS011;11819;51.394;12.340;2022-07-29T05:03:24;8.23;;;3.65;;
23300;SDS011;11819;51.394;12.340;2022-07-29T05:05:50;5.72;;;3.28;;
23300;SDS011;11819;51.394;12.340;2022-07-29T05:08:15;7.50;;;3.67;;
23300;SDS011;11819;51.394;12.340;2022-07-29T05:10:41;6.85;;;3.60;;
23300;SDS011;11819;51.394;12.340;2022-07-29T05:13:07;10.63;;;4.05;;
23300;SDS011;11819;51.394;12.340;2022-07-29T05:15:33;5.13;;;3.47;;
23300;SDS011;11819;51.394;12.340;2022-07-29T05:17:59;9.70;;;3.92;;
23300;SDS011;11819;51.394;12.340;2022-07-29T05:20:25;6.80;;;3.70;;
23300;SDS011;11819;51.394;12.340;2022-07-29T05:22:54;9.40;;;4.30;;
23300;SDS011;11819;51.394;12.340;2022-07-29T05:25:21;4.60;;;3.60;;
23300;SDS011;11819;51.394;12.340;2022-07-29T05:27:46;7.55;;;3.70;;
23300;SDS011;11819;51.394;12.340;2022-07-29T05:30:12;8.13;;;4.15;;
23300;SDS011;11819;51.394;12.340;2022-07-29T05:32:38;9.60;;;3.78;;
23300;SDS011;11819;51.394;12.340;2022-07-29T05:35:04;8.35;;;3.58;;
23300;SDS011;11819;51.394;12.340;2022-07-29T05:37:30;10.20;;;3.97;;
23300;SDS011;11819;51.394;12.340;2022-07-29T05:39:55;7.38;;;4.13;;
23300;SDS011;11819;51.394;12.340;2022-07-29T05:42:21;7.30;;;3.63;;
23300;SDS011;11819;51.394;12.340;2022-07-29T05:44:47;7.00;;;4.20;;
23300;SDS011;11819;51.394;12.340;2022-07-29T05:47:12;8.52;;;3.70;;
23300;SDS011;11819;51.394;12.340;2022-07-29T05:49:38;9.13;;;4.15;;
23300;SDS011;11819;51.394;12.340;2022-07-29T05:52:04;9.77;;;4.15;;
23300;SDS011;11819;51.394;12.340;2022-07-29T05:54:29;5.78;;;4.00;;
23300;SDS011;11819;51.394;12.340;2022-07-29T05:56:55;6.18;;;4.07;;
23300;SDS011;11819;51.394;12.340;2022-07-29T05:59:21;6.13;;;4.00;;
23300;SDS011;11819;51.394;12.340;2022-07-29T06:01:46;8.07;;;4.57;;
23300;SDS011;11819;51.394;12.340;2022-07-29T06:04:12;8.25;;;4.53;;
23300;SDS011;11819;51.394;12.340;2022-07-29T06:06:38;7.95;;;4.43;;
23300;SDS011;11819;51.394;12.340;2022-07-29T06:09:03;6.95;;;4.45;;
23300;SDS011;11819;51.394;12.340;2022-07-29T06:11:29;6.32;;;4.05;;
23300;SDS011;11819;51.394;12.340;2022-07-29T06:13:55;10.02;;;5.10;;
23300;SDS011;11819;51.394;12.340;2022-07-29T06:16:20;6.95;;;4.47;;
23300;SDS011;11819;51.394;12.340;2022-07-29T06:18:46;7.72;;;3.90;;
23300;SDS011;11819;51.394;12.340;2022-07-29T06:21:11;6.80;;;3.80;;
23300;SDS011;11819;51.394;12.340;2022-07-29T06:23:37;10.50;;;4.53;;
23300;SDS011;11819;51.394;12.340;2022-07-29T06:26:03;9.82;;;4.15;;
23300;SDS011;11819;51.394;12.340;2022-07-29T06:28:29;7.68;;;4.25;;
23300;SDS011;11819;51.394;12.340;2022-07-29T06:30:55;6.68;;;4.30;;
23300;SDS011;11819;51.394;12.340;2022-07-29T06:33:21;8.20;;;4.38;;
23300;SDS011;11819;51.394;12.340;2022-07-29T06:35:46;8.82;;;4.32;;
23300;SDS011;11819;51.394;12.340;2022-07-29T06:38:12;7.13;;;4.22;;
23300;SDS011;11819;51.394;12.340;2022-07-29T06:40:42;7.70;;;4.40;;
23300;SDS011;11819;51.394;12.340;2022-07-29T06:43:28;8.27;;;5.03;;
23300;SDS011;11819;51.394;12.340;2022-07-29T06:45:57;7.05;;;4.53;;
23300;SDS011;11819;51.394;12.340;2022-07-29T06:48:23;8.98;;;4.43;;
23300;SDS011;11819;51.394;12.340;2022-07-29T06:50:49;7.10;;;4.60;;
23300;SDS011;11819;51.394;12.340;2022-07-29T06:53:15;8.75;;;4.60;;
23300;SDS011;11819;51.394;12.340;2022-07-29T06:55:40;8.20;;;4.50;;
23300;SDS011;11819;51.394;12.340;2022-07-29T06:58:07;7.93;;;4.13;;
23300;SDS011;11819;51.394;12.340;2022-07-29T07:00:34;10.82;;;4.72;;
23300;SDS011;11819;51.394;12.340;2022-07-29T07:03:00;9.38;;;4.60;;
23300;SDS011;11819;51.394;12.340;2022-07-29T07:05:26;9.65;;;4.85;;
23300;SDS011;11819;51.394;12.340;2022-07-29T07:07:52;10.48;;;4.82;;
23300;SDS011;11819;51.394;12.340;2022-07-29T07:10:17;7.13;;;4.47;;
23300;SDS011;11819;51.394;12.340;2022-07-29T07:12:43;11.70;;;5.45;;
23300;SDS011;11819;51.394;12.340;2022-07-29T07:15:09;12.07;;;5.25;;
23300;SDS011;11819;51.394;12.340;2022-07-29T07:17:34;11.63;;;5.95;;
23300;SDS011;11819;51.394;12.340;2022-07-29T07:20:00;8.43;;;4.78;;
23300;SDS011;11819;51.394;12.340;2022-07-29T07:22:26;13.02;;;6.22;;
23300;SDS011;11819;51.394;12.340;2022-07-29T07:24:51;10.63;;;5.65;;
23300;SDS011;11819;51.394;12.340;2022-07-29T07:27:17;11.48;;;5.55;;
23300;SDS011;11819;51.394;12.340;2022-07-29T07:29:42;9.40;;;5.45;;
23300;SDS011;11819;51.394;12.340;2022-07-29T07:32:08;8.05;;;5.40;;
23300;SDS011;11819;51.394;12.340;2022-07-29T07:34:33;10.18;;;5.70;;
23300;SDS011;11819;51.394;12.340;2022-07-29T07:36:59;14.05;;;5.80;;
23300;SDS011;11819;51.394;12.340;2022-07-29T07:39:24;8.55;;;5.55;;
23300;SDS011;11819;51.394;12.340;2022-07-29T07:41:51;10.75;;;6.10;;
23300;SDS011;11819;51.394;12.340;2022-07-29T07:44:17;10.32;;;6.55;;
23300;SDS011;11819;51.394;12.340;2022-07-29T07:46:42;9.23;;;5.70;;
23300;SDS011;11819;51.394;12.340;2022-07-29T07:49:09;13.27;;;6.68;;
23300;SDS011;11819;51.394;12.340;2022-07-29T07:51:35;13.98;;;6.32;;
23300;SDS011;11819;51.394;12.340;2022-07-29T07:54:01;10.73;;;5.78;;
23300;SDS011;11819;51.394;12.340;2022-07-29T07:56:27;9.77;;;5.88;;
23300;SDS011;11819;51.394;12.340;2022-07-29T07:58:52;14.25;;;7.53;;
23300;SDS011;11819;51.394;12.340;2022-07-29T08:01:18;9.70;;;5.72;;
23300;SDS011;11819;51.394;12.340;2022-07-29T08:03:47;12.35;;;5.72;;
23300;SDS011;11819;51.394;12.340;2022-07-29T08:06:13;10.85;;;6.43;;
23300;SDS011;11819;51.394;12.340;2022-07-29T08:08:39;11.82;;;6.28;;
23300;SDS011;11819;51.394;12.340;2022-07-29T08:11:05;10.52;;;5.93;;
23300;SDS011;11819;51.394;12.340;2022-07-29T08:13:31;10.32;;;6.13;;
23300;SDS011;11819;51.394;12.340;2022-07-29T08:15:57;10.60;;;6.18;;
23300;SDS011;11819;51.394;12.340;2022-07-29T08:18:28;9.95;;;5.93;;
23300;SDS011;11819;51.394;12.340;2022-07-29T08:20:55;10.63;;;5.93;;
23300;SDS011;11819;51.394;12.340;2022-07-29T08:23:21;13.10;;;5.80;;
23300;SDS011;11819;51.394;12.340;2022-07-29T08:25:48;10.38;;;6.15;;
23300;SDS011;11819;51.394;12.340;2022-07-29T08:28:14;10.57;;;5.60;;
23300;SDS011;11819;51.394;12.340;2022-07-29T08:30:39;12.95;;;6.15;;
23300;SDS011;11819;51.394;12.340;2022-07-29T08:33:05;12.30;;;6.47;;
23300;SDS011;11819;51.394;12.340;2022-07-29T08:35:31;9.45;;;5.72;;
23300;SDS011;11819;51.394;12.340;2022-07-29T08:37:56;14.48;;;6.32;;
23300;SDS011;11819;51.394;12.340;2022-07-29T08:40:22;9.45;;;5.68;;
23300;SDS011;11819;51.394;12.340;2022-07-29T08:42:49;8.93;;;5.97;;
23300;SDS011;11819;51.394;12.340;2022-07-29T08:45:15;11.48;;;5.95;;
23300;SDS011;11819;51.394;12.340;2022-07-29T08:47:41;12.77;;;5.43;;
23300;SDS011;11819;51.394;12.340;2022-07-29T08:50:10;11.18;;;6.68;;
23300;SDS011;11819;51.394;12.340;2022-07-29T08:52:38;8.25;;;5.78;;
23300;SDS011;11819;51.394;12.340;2022-07-29T08:55:05;13.57;;;6.50;;
23300;SDS011;11819;51.394;12.340;2022-07-29T08:57:32;9.07;;;5.95;;
23300;SDS011;11819;51.394;12.340;2022-07-29T08:59:59;10.35;;;5.97;;
23300;SDS011;11819;51.394;12.340;2022-07-29T09:02:28;12.70;;;6.43;;
23300;SDS011;11819;51.394;12.340;2022-07-29T09:04:58;14.95;;;6.18;;
23300;SDS011;11819;51.394;12.340;2022-07-29T09:07:26;11.40;;;6.80;;
23300;SDS011;11819;51.394;12.340;2022-07-29T09:09:52;13.07;;;7.07;;
23300;SDS011;11819;51.394;12.340;2022-07-29T09:12:17;11.27;;;8.00;;
23300;SDS011;11819;51.394;12.340;2022-07-29T09:14:43;10.98;;;7.18;;
23300;SDS011;11819;51.394;12.340;2022-07-29T09:17:09;10.18;;;7.22;;
23300;SDS011;11819;51.394;12.340;2022-07-29T09:19:35;12.10;;;7.65;;
23300;SDS011;11819;51.394;12.340;2022-07-29T09:22:03;11.07;;;7.82;;
23300;SDS011;11819;51.394;12.340;2022-07-29T09:27:07;10.60;;;7.60;;
23300;SDS011;11819;51.394;12.340;2022-07-29T09:29:44;11.05;;;7.80;;
23300;SDS011;11819;51.394;12.340;2022-07-29T09:32:09;11.55;;;7.78;;
23300;SDS011;11819;51.394;12.340;2022-07-29T09:34:35;17.67;;;8.65;;
23300;SDS011;11819;51.394;12.340;2022-07-29T09:37:01;10.05;;;7.47;;
23300;SDS011;11819;51.394;12.340;2022-07-29T09:39:28;10.95;;;7.25;;
23300;SDS011;11819;51.394;12.340;2022-07-29T09:41:55;11.77;;;7.25;;
23300;SDS011;11819;51.394;12.340;2022-07-29T09:44:23;13.95;;;7.28;;
23300;SDS011;11819;51.394;12.340;2022-07-29T09:49:27;13.30;;;7.05;;
23300;SDS011;11819;51.394;12.340;2022-07-29T09:52:06;9.43;;;6.43;;
23300;SDS011;11819;51.394;12.340;2022-07-29T09:54:34;7.95;;;6.22;;
23300;SDS011;11819;51.394;12.340;2022-07-29T09:57:07;9.93;;;6.40;;
23300;SDS011;11819;51.394;12.340;2022-07-29T09:59:37;11.10;;;6.53;;
23300;SDS011;11819;51.394;12.340;2022-07-29T10:02:11;10.82;;;7.30;;
23300;SDS011;11819;51.394;12.340;2022-07-29T10:04:41;11.80;;;6.47;;
23300;SDS011;11819;51.394;12.340;2022-07-29T10:07:07;13.57;;;6.40;;
23300;SDS011;11819;51.394;12.340;2022-07-29T10:09:33;10.43;;;6.28;;
23300;SDS011;11819;51.394;12.340;2022-07-29T10:12:33;9.85;;;6.43;;
23300;SDS011;11819;51.394;12.340;2022-07-29T10:14:51;10.25;;;5.97;;
23300;SDS011;11819;51.394;12.340;2022-07-29T10:17:18;8.18;;;5.50;;
23300;SDS011;11819;51.394;12.340;2022-07-29T10:19:44;9.02;;;6.43;;
23300;SDS011;11819;51.394;12.340;2022-07-29T10:22:10;7.93;;;5.53;;
23300;SDS011;11819;51.394;12.340;2022-07-29T10:24:37;6.55;;;5.00;;
23300;SDS011;11819;51.394;12.340;2022-07-29T10:27:04;9.20;;;5.28;;
23300;SDS011;11819;51.394;12.340;2022-07-29T10:29:32;9.68;;;6.10;;
23300;SDS011;11819;51.394;12.340;2022-07-29T10:43:03;12.10;;;5.85;;
23300;SDS011;11819;51.394;12.340;2022-07-29T10:45:41;13.27;;;6.47;;
23300;SDS011;11819;51.394;12.340;2022-07-29T10:48:07;7.78;;;5.60;;
23300;SDS011;11819;51.394;12.340;2022-07-29T10:53:50;7.78;;;5.10;;
23300;SDS011;11819;51.394;12.340;2022-07-29T10:56:24;8.52;;;5.20;;
23300;SDS011;11819;51.394;12.340;2022-07-29T11:01:48;10.68;;;5.07;;
23300;SDS011;11819;51.394;12.340;2022-07-29T11:04:15;10.15;;;5.72;;
23300;SDS011;11819;51.394;12.340;2022-07-29T11:09:29;8.63;;;5.00;;
23300;SDS011;11819;51.394;12.340;2022-07-29T11:11:56;8.23;;;5.47;;
23300;SDS011;11819;51.394;12.340;2022-07-29T11:20:36;10.10;;;5.68;;
23300;SDS011;11819;51.394;12.340;2022-07-29T11:23:16;9.65;;;5.72;;
23300;SDS011;11819;51.394;12.340;2022-07-29T11:25:44;9.13;;;5.43;;
23300;SDS011;11819;51.394;12.340;2022-07-29T11:28:18;8.25;;;5.53;;
23300;SDS011;11819;51.394;12.340;2022-07-29T11:30:49;8.45;;;5.45;;
23300;SDS011;11819;51.394;12.340;2022-07-29T11:33:32;11.00;;;5.28;;
23300;SDS011;11819;51.394;12.340;2022-07-29T11:38:34;7.82;;;5.07;;
23300;SDS011;11819;51.394;12.340;2022-07-29T11:43:52;9.25;;;5.60;;
23300;SDS011;11819;51.394;12.340;2022-07-29T11:51:53;7.47;;;5.38;;
23300;SDS011;11819;51.394;12.340;2022-07-29T11:54:24;8.55;;;5.50;;
23300;SDS011;11819;51.394;12.340;2022-07-29T11:56:51;6.82;;;5.00;;
23300;SDS011;11819;51.394;12.340;2022-07-29T11:59:17;8.98;;;5.40;;
23300;SDS011;11819;51.394;12.340;2022-07-29T12:01:54;8.18;;;5.43;;
23300;SDS011;11819;51.394;12.340;2022-07-29T12:04:21;9.18;;;5.38;;
23300;SDS011;11819;51.394;12.340;2022-07-29T12:06:52;7.20;;;5.20;;
23300;SDS011;11819;51.394;12.340;2022-07-29T12:09:19;8.63;;;5.47;;
23300;SDS011;11819;51.394;12.340;2022-07-29T12:11:46;9.35;;;6.00;;
23300;SDS011;11819;51.394;12.340;2022-07-29T12:14:28;8.27;;;5.88;;
23300;SDS011;11819;51.394;12.340;2022-07-29T12:16:54;8.82;;;5.63;;
23300;SDS011;11819;51.394;12.340;2022-07-29T12:19:21;8.93;;;5.95;;
23300;SDS011;11819;51.394;12.340;2022-07-29T12:21:48;9.88;;;5.93;;
23300;SDS011;11819;51.394;12.340;2022-07-29T12:24:15;8.10;;;6.00;;
23300;SDS011;11819;51.394;12.340;2022-07-29T12:26:52;9.32;;;5.57;;
23300;SDS011;11819;51.394;12.340;2022-07-29T12:29:24;7.25;;;5.60;;
23300;SDS011;11819;51.394;12.340;2022-07-29T12:31:54;10.02;;;5.97;;
23300;SDS011;11819;51.394;12.340;2022-07-29T12:34:25;8.55;;;5.78;;
23300;SDS011;11819;51.394;12.340;2022-07-29T12:36:53;10.02;;;5.63;;
23300;SDS011;11819;51.394;12.340;2022-07-29T12:39:19;12.73;;;6.63;;
23300;SDS011;11819;51.394;12.340;2022-07-29T12:41:45;10.00;;;5.85;;
23300;SDS011;11819;51.394;12.340;2022-07-29T12:44:11;10.23;;;5.88;;
23300;SDS011;11819;51.394;12.340;2022-07-29T12:46:36;11.98;;;6.18;;
23300;SDS011;11819;51.394;12.340;2022-07-29T12:49:02;11.23;;;6.18;;
23300;SDS011;11819;51.394;12.340;2022-07-29T12:51:32;10.73;;;6.60;;
23300;SDS011;11819;51.394;12.340;2022-07-29T12:54:06;10.88;;;5.90;;
23300;SDS011;11819;51.394;12.340;2022-07-29T12:56:38;7.53;;;5.25;;
23300;SDS011;11819;51.394;12.340;2022-07-29T12:59:15;9.48;;;5.45;;
23300;SDS011;11819;51.394;12.340;2022-07-29T13:01:46;11.18;;;6.28;;
23300;SDS011;11819;51.394;12.340;2022-07-29T13:04:24;14.95;;;6.07;;
23300;SDS011;11819;51.394;12.340;2022-07-29T13:06:57;14.18;;;5.95;;
23300;SDS011;11819;51.394;12.340;2022-07-29T13:09:36;8.25;;;6.28;;
23300;SDS011;11819;51.394;12.340;2022-07-29T13:12:05;8.00;;;5.65;;
23300;SDS011;11819;51.394;12.340;2022-07-29T13:14:39;8.57;;;5.95;;
23300;SDS011;11819;51.394;12.340;2022-07-29T13:17:10;10.63;;;6.05;;
23300;SDS011;11819;51.394;12.340;2022-07-29T13:19:39;8.65;;;5.60;;
23300;SDS011;11819;51.394;12.340;2022-07-29T13:22:06;9.18;;;5.85;;
23300;SDS011;11819;51.394;12.340;2022-07-29T13:27:23;6.70;;;5.32;;
23300;SDS011;11819;51.394;12.340;2022-07-29T13:29:50;9.55;;;5.45;;
23300;SDS011;11819;51.394;12.340;2022-07-29T13:32:17;9.40;;;6.20;;
23300;SDS011;11819;51.394;12.340;2022-07-29T13:34:44;7.90;;;5.65;;
23300;SDS011;11819;51.394;12.340;2022-07-29T13:37:09;7.88;;;5.75;;
23300;SDS011;11819;51.394;12.340;2022-07-29T13:39:35;9.60;;;5.90;;
23300;SDS011;11819;51.394;12.340;2022-07-29T13:42:02;8.35;;;5.65;;
23300;SDS011;11819;51.394;12.340;2022-07-29T13:44:29;8.85;;;5.78;;
23300;SDS011;11819;51.394;12.340;2022-07-29T13:46:54;9.23;;;6.18;;
23300;SDS011;11819;51.394;12.340;2022-07-29T13:49:20;9.82;;;5.93;;
23300;SDS011;11819;51.394;12.340;2022-07-29T13:51:47;7.55;;;6.13;;
23300;SDS011;11819;51.394;12.340;2022-07-29T13:54:13;7.22;;;6.05;;
23300;SDS011;11819;51.394;12.340;2022-07-29T13:56:39;7.95;;;6.80;;
23300;SDS011;11819;51.394;12.340;2022-07-29T13:59:04;10.00;;;5.95;;
23300;SDS011;11819;51.394;12.340;2022-07-29T14:01:30;8.40;;;5.93;;
23300;SDS011;11819;51.394;12.340;2022-07-29T14:03:55;8.52;;;6.55;;
23300;SDS011;11819;51.394;12.340;2022-07-29T14:06:21;8.90;;;6.93;;
23300;SDS011;11819;51.394;12.340;2022-07-29T14:08:47;11.38;;;6.90;;
23300;SDS011;11819;51.394;12.340;2022-07-29T14:11:12;9.13;;;6.55;;
23300;SDS011;11819;51.394;12.340;2022-07-29T14:13:38;10.18;;;6.80;;
23300;SDS011;11819;51.394;12.340;2022-07-29T14:16:03;9.35;;;6.60;;
23300;SDS011;11819;51.394;12.340;2022-07-29T14:18:29;10.05;;;7.53;;
23300;SDS011;11819;51.394;12.340;2022-07-29T14:20:55;9.70;;;6.95;;
23300;SDS011;11819;51.394;12.340;2022-07-29T14:23:21;9.80;;;6.80;;
23300;SDS011;11819;51.394;12.340;2022-07-29T14:25:47;9.02;;;6.82;;
23300;SDS011;11819;51.394;12.340;2022-07-29T14:28:12;9.70;;;6.97;;
23300;SDS011;11819;51.394;12.340;2022-07-29T14:30:38;8.93;;;6.95;;
23300;SDS011;11819;51.394;12.340;2022-07-29T14:33:04;9.07;;;6.50;;
23300;SDS011;11819;51.394;12.340;2022-07-29T14:35:30;9.85;;;6.90;;
23300;SDS011;11819;51.394;12.340;2022-07-29T14:37:55;10.77;;;6.40;;
23300;SDS011;11819;51.394;12.340;2022-07-29T14:40:22;8.52;;;6.50;;
23300;SDS011;11819;51.394;12.340;2022-07-29T14:42:48;8.57;;;6.05;;
23300;SDS011;11819;51.394;12.340;2022-07-29T14:45:14;9.45;;;6.82;;
23300;SDS011;11819;51.394;12.340;2022-07-29T14:47:39;10.25;;;6.68;;
23300;SDS011;11819;51.394;12.340;2022-07-29T14:50:05;8.32;;;6.35;;
23300;SDS011;11819;51.394;12.340;2022-07-29T14:52:32;13.07;;;6.53;;
23300;SDS011;11819;51.394;12.340;2022-07-29T14:54:58;8.68;;;5.72;;
23300;SDS011;11819;51.394;12.340;2022-07-29T14:57:23;9.82;;;6.47;;
23300;SDS011;11819;51.394;12.340;2022-07-29T14:59:49;10.45;;;6.22;;
23300;SDS011;11819;51.394;12.340;2022-07-29T15:02:14;8.93;;;7.20;;
23300;SDS011;11819;51.394;12.340;2022-07-29T15:04:40;9.00;;;6.40;;
23300;SDS011;11819;51.394;12.340;2022-07-29T15:07:05;10.63;;;6.60;;
23300;SDS011;11819;51.394;12.340;2022-07-29T15:09:31;9.40;;;6.95;;
23300;SDS011;11819;51.394;12.340;2022-07-29T15:11:57;10.02;;;6.45;;
23300;SDS011;11819;51.394;12.340;2022-07-29T15:14:22;9.95;;;7.00;;
23300;SDS011;11819;51.394;12.340;2022-07-29T15:16:48;9.48;;;7.25;;
23300;SDS011;11819;51.394;12.340;2022-07-29T15:19:13;8.45;;;6.85;;
23300;SDS011;11819;51.394;12.340;2022-07-29T15:21:39;12.45;;;6.82;;
23300;SDS011;11819;51.394;12.340;2022-07-29T15:24:05;7.95;;;7.15;;
23300;SDS011;11819;51.394;12.340;2022-07-29T15:26:32;10.63;;;7.70;;
23300;SDS011;11819;51.394;12.340;2022-07-29T15:28:58;10.65;;;6.63;;